»·PEaware :: USC243 KMRY-KLAS

USC243 :: KMRY-KLAS

FLIGHT INFORMATION

Flight Status: Arrived
Operator: Unknown
More flights by this operator :: More flights under this callsign
Pilot: Andy P. (22680)
Aircraft: GATES LEARJET LEARJET 35/36
(LJ35)
More flights by this aircraft type
Origin: KMRY Monterey Peninsula
United States
Destination: KLAS McCarran Intl
United States
More flights between these airports :: More routes between these airports
Route: +MRY5 SHOEY SNS PXN NTELL PPARK BTY SUNST4
File this flight plan on PilotEdge
Remarks:
Altitude:
(Current/Filed)
35,000ft
Speed:
(Current/Filed)
465kts
Departed: 21-Sep-19 12:24 PM
Arrived: 21-Sep-19 01:24 PM
Distance/Time
Traveled:
326nm/1:00
Distance/Time
To Go:
Arrived

Flight Plot

Page will automatically refresh every two minutes.

Flight plan parsing failed; only flown route is shown


Map Options




Map Legend


Flown Route
Filed Route
Departure Airport
Arrival Airport
Navaid (VOR, NDB)
Fix

Horizontal Profiles

Position Reports

Time Latitude Longitude Heading Altitude Ground
Speed
21-Sep-19 12:01 36.589008 -121.856458 346 208ft 0kts
21-Sep-19 12:02 36.589008 -121.856458 346 208ft 0kts
21-Sep-19 12:03 36.589008 -121.856458 346 208ft 0kts
21-Sep-19 12:04 36.589008 -121.856458 346 208ft 0kts
21-Sep-19 12:05 36.589008 -121.856458 346 208ft 0kts
21-Sep-19 12:06 36.589008 -121.856458 346 208ft 0kts
21-Sep-19 12:07 36.589008 -121.856458 346 208ft 0kts
21-Sep-19 12:08 36.589008 -121.856458 346 208ft 0kts
21-Sep-19 12:09 36.589008 -121.856458 346 208ft 0kts
21-Sep-19 12:10 36.589008 -121.856458 346 208ft 0kts
21-Sep-19 12:11 36.589008 -121.856458 346 208ft 0kts
21-Sep-19 12:12 36.589008 -121.856458 346 208ft 0kts
21-Sep-19 12:13 36.589008 -121.856458 346 208ft 0kts
21-Sep-19 12:14 36.589008 -121.856458 346 208ft 0kts
21-Sep-19 12:15 36.589008 -121.856458 346 208ft 0kts
21-Sep-19 12:16 36.589008 -121.856458 346 208ft 0kts
21-Sep-19 12:17 36.589008 -121.856458 346 208ft 0kts
21-Sep-19 12:18 36.589009 -121.856458 346 208ft 0kts
21-Sep-19 12:19 36.589011 -121.856459 346 208ft 0kts
21-Sep-19 12:20 36.589552 -121.855109 91 208ft 19kts
21-Sep-19 12:21 36.586402 -121.845419 116 208ft 33kts
21-Sep-19 12:22 36.583350 -121.836497 111 208ft 23kts
21-Sep-19 12:23 36.585375 -121.839555 291 208ft 94kts
21-Sep-19 12:24 36.605438 -121.888206 320 2097ft 173kts
21-Sep-19 12:25 36.649141 -121.890848 51 4356ft 182kts
21-Sep-19 12:26 36.654332 -121.823706 83 6835ft 209kts
21-Sep-19 12:27 36.658162 -121.750115 83 9237ft 226kts
21-Sep-19 12:28 36.662035 -121.653267 85 10926ft 321kts
21-Sep-19 12:29 36.668182 -121.532379 82 13162ft 370kts
21-Sep-19 12:30 36.676913 -121.402308 82 15483ft 383kts
21-Sep-19 12:31 36.681668 -121.328473 83 16584ft 389kts
21-Sep-19 12:32 36.685114 -121.274335 82 17284ft 394kts
21-Sep-19 12:33 36.693824 -121.135705 83 19923ft 410kts
21-Sep-19 12:34 36.702646 -120.992344 83 22014ft 422kts
21-Sep-19 12:35 36.711580 -120.844204 83 23950ft 435kts
21-Sep-19 12:36 36.733090 -120.695091 72 25802ft 442kts
21-Sep-19 12:37 36.764598 -120.544947 73 27246ft 450kts
21-Sep-19 12:38 36.778016 -120.480701 73 27759ft 452kts
21-Sep-19 12:39 36.791519 -120.415875 73 28216ft 455kts
21-Sep-19 12:40 36.823260 -120.262729 73 29138ft 460kts
21-Sep-19 12:41 36.855042 -120.108298 73 30361ft 460kts
21-Sep-19 12:42 36.886472 -119.954427 73 32362ft 455kts
21-Sep-19 12:43 36.891182 -119.797105 94 34109ft 457kts
21-Sep-19 12:44 36.876742 -119.638790 94 34994ft 460kts
21-Sep-19 12:45 36.861791 -119.478467 94 35030ft 469kts
21-Sep-19 12:46 36.846372 -119.315920 94 35033ft 474kts
21-Sep-19 12:47 36.830558 -119.151757 94 35054ft 477kts
21-Sep-19 12:48 36.814464 -118.987094 94 35085ft 479kts
21-Sep-19 12:49 36.798106 -118.822131 94 35064ft 480kts
21-Sep-19 12:50 36.782902 -118.656870 90 35150ft 479kts
21-Sep-19 12:51 36.783215 -118.490708 85 35156ft 478kts
21-Sep-19 12:52 36.785982 -118.325004 85 35150ft 479kts
21-Sep-19 12:53 36.788525 -118.157985 85 35118ft 480kts
21-Sep-19 12:54 36.790824 -117.991608 85 35120ft 480kts
21-Sep-19 12:55 36.792896 -117.824662 85 35121ft 482kts
21-Sep-19 12:56 36.794688 -117.658799 85 33826ft 465kts
21-Sep-19 12:57 36.796217 -117.500553 84 32115ft 451kts
21-Sep-19 12:58 36.797590 -117.341585 84 30390ft 467kts
21-Sep-19 12:59 36.798739 -117.177138 84 28606ft 480kts
21-Sep-19 13:00 36.799654 -117.009356 84 26785ft 483kts
21-Sep-19 13:01 36.800335 -116.841456 84 24963ft 486kts
21-Sep-19 13:02 36.755381 -116.681869 124 24005ft 499kts
21-Sep-19 13:03 36.659425 -116.559375 121 23572ft 490kts
21-Sep-19 13:04 36.574778 -116.425294 128 22757ft 496kts
21-Sep-19 13:05 36.482825 -116.295888 129 21596ft 504kts
21-Sep-19 13:06 36.392979 -116.169438 130 19797ft 477kts
21-Sep-19 13:07 36.306187 -116.047660 131 18073ft 466kts
21-Sep-19 13:08 36.221957 -115.929145 128 16401ft 442kts
21-Sep-19 13:09 36.168571 -115.798437 111 16058ft 421kts
21-Sep-19 13:10 36.133483 -115.691089 110 15694ft 294kts
21-Sep-19 13:11 36.103563 -115.598557 110 14024ft 291kts
21-Sep-19 13:12 36.073246 -115.504944 111 12772ft 286kts
21-Sep-19 13:13 36.044821 -115.417453 111 11565ft 269kts
21-Sep-19 13:14 36.027749 -115.327366 94 10430ft 270kts
21-Sep-19 13:15 36.021117 -115.237396 94 9392ft 255kts
21-Sep-19 13:16 36.015167 -115.152698 94 8564ft 236kts
21-Sep-19 13:17 36.009430 -115.070761 92 8045ft 242kts
21-Sep-19 13:18 36.014141 -114.991444 52 6968ft 236kts
21-Sep-19 13:19 36.068529 -114.992324 304 4551ft 188kts
21-Sep-19 13:20 36.073823 -115.045085 270 3425ft 141kts
21-Sep-19 13:21 36.073854 -115.094558 270 2718ft 139kts
21-Sep-19 13:22 36.073675 -115.136776 270 2184ft 60kts
21-Sep-19 13:23 36.074694 -115.145877 301 2184ft 0kts
21-Sep-19 13:24 36.076579 -115.146553 0 2184ft 22kts
21-Sep-19 13:25 36.078244 -115.142798 89 2184ft 24kts
21-Sep-19 13:26 36.078329 -115.132239 90 2184ft 36kts
21-Sep-19 13:27 36.080284 -115.126324 357 2184ft 19kts
21-Sep-19 13:28 36.082985 -115.125520 101 2184ft 0kts
21-Sep-19 13:29 36.082985 -115.125520 101 2184ft 0kts

Navigation Log

Ident Type
Flight plan parsing failed, navigation log unavailable